Time;durP1;ratioP1;P1;durP2;ratioP2;P2;SDS_P1;SDS_P2;PMS_P1;PMS_P2;Temp;Humidity;BMP_temperature;BMP_pressure;BME280_temperature;BME280_humidity;BME280_pressure;Samples;Min_cycle;Max_cycle;Signal;HPM_P1;HPM_P2
2022/05/19 00:01:06;;;;;;;4.60;4.00;;;;;;;11.67;100.00;93558.59;2074964;28;20033;-83
2022/05/19 00:02:09;;;;;;;5.75;4.13;;;;;;;11.57;100.00;93560.31;2085447;28;20033;-83
2022/05/19 00:03:10;;;;;;;4.20;3.83;;;;;;;11.64;100.00;93553.31;2090437;28;20025;-79
2022/05/19 00:04:11;;;;;;;5.05;3.78;;;;;;;11.60;100.00;93550.72;2090086;28;20017;-80
2022/05/19 00:05:12;;;;;;;4.57;4.03;;;;;;;11.52;100.00;93552.00;2073591;28;20475;-83
2022/05/19 00:06:13;;;;;;;4.38;3.97;;;;;;;11.62;100.00;93545.69;2073850;28;20112;-81
2022/05/19 00:07:15;;;;;;;4.78;3.53;;;;;;;11.58;100.00;93555.69;2082015;28;20025;-82
2022/05/19 00:08:16;;;;;;;4.50;3.90;;;;;;;11.51;100.00;93545.16;2089966;28;20017;-79
2022/05/19 00:09:18;;;;;;;5.85;3.85;;;;;;;11.40;100.00;93544.56;2082478;28;20393;-80
2022/05/19 00:10:19;;;;;;;6.45;4.22;;;;;;;11.61;100.00;93544.19;2082104;28;20570;-81
2022/05/19 00:11:28;;;;;;;5.35;3.72;;;;;;;11.65;100.00;93546.78;2090042;28;20111;-79
2022/05/19 00:12:30;;;;;;;10.27;3.97;;;;;;;11.73;100.00;93540.91;2091121;28;20025;-80
2022/05/19 00:13:31;;;;;;;5.70;3.63;;;;;;;11.65;100.00;93541.44;2095416;28;20053;-80
2022/05/19 00:14:32;;;;;;;4.10;3.60;;;;;;;11.56;100.00;93548.09;2081824;28;20029;-80
2022/05/19 00:15:33;;;;;;;5.00;4.00;;;;;;;11.56;100.00;93548.09;2090047;28;20760;-80
2022/05/19 00:16:34;;;;;;;6.93;3.90;;;;;;;11.52;100.00;93547.41;2098235;28;20036;-81
2022/05/19 00:17:35;;;;;;;4.45;3.60;;;;;;;11.47;100.00;93542.53;2090051;28;20021;-80
2022/05/19 00:18:37;;;;;;;4.50;4.10;;;;;;;11.58;100.00;93539.63;2078595;28;20021;-81
2022/05/19 00:19:38;;;;;;;4.78;3.70;;;;;;;11.44;100.00;93540.66;2081847;28;20052;-81
2022/05/19 00:20:40;;;;;;;5.90;3.72;;;;;;;11.46;100.00;93541.03;2081928;28;20029;-81
2022/05/19 00:21:49;;;;;;;4.50;3.67;;;;;;;11.25;100.00;93541.41;2081982;28;20099;-81
2022/05/19 00:22:50;;;;;;;3.78;3.47;;;;;;;11.29;100.00;93542.09;2091041;28;20071;-82
2022/05/19 00:23:52;;;;;;;4.28;3.88;;;;;;;11.44;100.00;93542.59;2098284;28;20025;-82
2022/05/19 00:24:53;;;;;;;4.47;3.90;;;;;;;11.32;100.00;93541.25;2089922;28;20021;-80
2022/05/19 00:25:54;;;;;;;6.45;4.03;;;;;;;11.21;100.00;93540.69;2073366;28;20025;-81
2022/05/19 00:26:55;;;;;;;6.38;3.88;;;;;;;11.30;100.00;93533.66;2073560;28;20529;-80
2022/05/19 00:27:56;;;;;;;4.38;3.90;;;;;;;11.40;100.00;93531.19;2081699;28;20108;-81
2022/05/19 00:28:57;;;;;;;8.70;4.10;;;;;;;11.33;100.00;93540.13;2086180;28;20025;-80
2022/05/19 00:29:59;;;;;;;4.38;3.97;;;;;;;11.21;100.00;93532.69;2081735;28;20025;-81
2022/05/19 00:31:00;;;;;;;4.60;3.85;;;;;;;11.15;100.00;93534.28;2081912;28;20037;-80
2022/05/19 00:32:01;;;;;;;4.65;3.83;;;;;;;11.47;100.00;93539.09;2081826;28;20044;-81
2022/05/19 00:33:36;;;;;;;6.70;4.50;;;;;;;11.47;100.00;93533.75;2081806;28;20390;-80
2022/05/19 00:34:37;;;;;;;7.40;4.13;;;;;;;11.31;100.00;93531.72;2094446;28;20028;-81
2022/05/19 00:35:40;;;;;;;5.03;4.35;;;;;;;11.25;100.00;93539.47;2081466;28;20485;-83
2022/05/19 00:36:41;;;;;;;4.47;4.07;;;;;;;11.31;100.00;93537.06;2090135;28;20025;-81
2022/05/19 00:37:42;;;;;;;6.95;4.45;;;;;;;11.43;100.00;93535.72;2098194;28;20503;-82
2022/05/19 00:38:43;;;;;;;6.20;4.18;;;;;;;11.40;100.00;93534.63;2089704;28;20024;-81
2022/05/19 00:39:44;;;;;;;7.97;4.65;;;;;;;11.37;100.00;93532.78;2087331;28;20028;-79
2022/05/19 00:40:50;;;;;;;6.43;4.05;;;;;;;11.18;100.00;93534.25;2089719;28;20021;-79
2022/05/19 00:43:11;;;;;;;7.63;4.13;;;;;;;11.38;100.00;93528.94;2098077;28;20025;-81
2022/05/19 00:44:13;;;;;;;5.50;4.32;;;;;;;11.23;100.00;93533.00;2089344;28;20428;-81
2022/05/19 00:45:26;;;;;;;4.75;3.95;;;;;;;11.09;100.00;93528.66;2089865;28;20029;-80
2022/05/19 00:46:51;;;;;;;7.20;4.30;;;;;;;11.21;100.00;93530.75;2091227;28;20055;-83
2022/05/19 00:48:08;;;;;;;5.43;4.22;;;;;;;11.36;100.00;93528.56;2093123;28;20074;-81
2022/05/19 00:49:20;;;;;;;8.07;4.32;;;;;;;11.28;100.00;93525.28;2091660;28;20033;-79
2022/05/19 00:50:39;;;;;;;8.65;4.53;;;;;;;11.08;100.00;93527.16;2091158;28;20053;-83
2022/05/19 00:51:47;;;;;;;5.47;4.47;;;;;;;11.12;100.00;93525.19;2092111;28;20033;-80
2022/05/19 00:52:51;;;;;;;4.85;4.35;;;;;;;11.03;100.00;93530.31;2090571;28;20029;-82
2022/05/19 00:53:54;;;;;;;5.88;4.47;;;;;;;11.02;100.00;93526.13;2089081;28;20378;-80
2022/05/19 00:55:12;;;;;;;8.90;4.88;;;;;;;10.98;100.00;93528.84;2090395;28;20033;-80
2022/05/19 00:56:16;;;;;;;6.35;4.90;;;;;;;10.93;100.00;93531.22;2100327;28;20036;-82
2022/05/19 00:57:24;;;;;;;5.18;4.30;;;;;;;11.00;100.00;93528.44;2090169;28;20032;-80
2022/05/19 00:58:35;;;;;;;7.00;4.68;;;;;;;11.11;100.00;93526.34;2083375;28;20025;-80
2022/05/19 00:59:54;;;;;;;5.85;4.35;;;;;;;11.30;100.00;93527.53;2084271;28;20025;-79
2022/05/19 01:00:55;;;;;;;9.43;5.22;;;;;;;11.22;100.00;93520.81;2086153;28;20028;-79
2022/05/19 01:01:56;;;;;;;5.82;4.63;;;;;;;11.07;100.00;93523.72;2089779;28;20021;-80
2022/05/19 01:03:00;;;;;;;5.57;5.07;;;;;;;10.89;100.00;93519.81;2081560;28;20029;-82
2022/05/19 01:04:10;;;;;;;6.18;4.53;;;;;;;11.06;100.00;93524.91;2082134;28;20021;-81
2022/05/19 01:05:38;;;;;;;5.15;4.03;;;;;;;10.89;100.00;93512.59;2082420;28;20026;-83
2022/05/19 01:06:42;;;;;;;7.60;5.07;;;;;;;10.76;100.00;93517.75;2076525;28;20029;-81
2022/05/19 01:08:00;;;;;;;5.40;4.50;;;;;;;10.82;100.00;93521.47;2074052;28;20419;-79
2022/05/19 01:09:10;;;;;;;6.75;4.15;;;;;;;10.86;100.00;93521.41;2083543;28;20087;-79
2022/05/19 01:10:11;;;;;;;5.95;4.32;;;;;;;10.90;100.00;93519.44;2075781;28;20025;-82
2022/05/19 01:11:15;;;;;;;7.03;4.82;;;;;;;10.76;100.00;93517.75;2073042;28;20071;-81
2022/05/19 01:12:17;;;;;;;6.38;4.35;;;;;;;10.88;100.00;93519.06;2090263;28;20028;-79
2022/05/19 01:13:18;;;;;;;7.57;4.72;;;;;;;10.72;100.00;93518.97;2089261;28;20135;-82
2022/05/19 01:14:19;;;;;;;5.15;4.40;;;;;;;10.72;100.00;93527.00;2081252;28;20028;-80
2022/05/19 01:15:22;;;;;;;7.15;4.60;;;;;;;10.81;100.00;93521.88;2088376;28;20020;-81
2022/05/19 01:16:23;;;;;;;7.28;4.60;;;;;;;10.70;100.00;93522.03;2089694;28;20481;-81
2022/05/19 01:17:24;;;;;;;5.95;4.25;;;;;;;10.75;100.00;93518.88;2089532;28;20503;-80
2022/05/19 01:18:27;;;;;;;4.85;3.90;;;;;;;10.90;100.00;93518.69;2089461;28;20024;-79
2022/05/19 01:19:42;;;;;;;5.00;4.15;;;;;;;10.74;100.00;93530.00;2073997;28;20072;-80
2022/05/19 01:20:45;;;;;;;6.13;4.35;;;;;;;10.67;100.00;93517.50;2087581;28;20116;-80
2022/05/19 01:21:48;;;;;;;7.35;4.63;;;;;;;10.67;100.00;93524.75;2083283;28;20101;-82
2022/05/19 01:22:55;;;;;;;6.68;4.47;;;;;;;10.57;100.00;93523.75;2089419;28;20025;-80
2022/05/19 01:24:22;;;;;;;4.97;4.35;;;;;;;10.59;100.00;93516.88;2082918;28;20359;-79
2022/05/19 01:25:35;;;;;;;8.10;4.55;;;;;;;10.57;100.00;93529.84;2084747;28;20486;-80
2022/05/19 01:26:41;;;;;;;8.23;4.68;;;;;;;10.69;100.00;93519.78;2082579;28;20028;-80
2022/05/19 01:27:42;;;;;;;6.95;4.68;;;;;;;10.62;100.00;93522.53;2090314;28;20052;-81
2022/05/19 01:28:45;;;;;;;6.72;4.32;;;;;;;10.53;100.00;93517.72;2097691;28;20077;-83
2022/05/19 01:29:46;;;;;;;6.13;4.65;;;;;;;10.52;100.00;93519.63;2081358;28;20060;-79
2022/05/19 01:30:47;;;;;;;7.22;4.57;;;;;;;10.59;100.00;93518.78;2073093;28;20328;-83
2022/05/19 01:31:54;;;;;;;5.70;4.60;;;;;;;10.49;100.00;93525.03;2080960;28;20135;-81
2022/05/19 01:32:55;;;;;;;7.82;4.97;;;;;;;10.47;100.00;93514.00;2089679;28;20040;-83
2022/05/19 01:33:56;;;;;;;4.50;4.05;;;;;;;10.46;100.00;93515.91;2081155;28;20025;-79
2022/05/19 01:34:58;;;;;;;6.85;4.55;;;;;;;10.44;100.00;93510.19;2097732;28;20022;-81
2022/05/19 01:35:59;;;;;;;7.82;4.43;;;;;;;10.49;100.00;93517.78;2097529;28;20027;-79
2022/05/19 01:37:00;;;;;;;8.18;4.65;;;;;;;10.43;100.00;93515.97;2097721;28;20079;-80
2022/05/19 01:38:13;;;;;;;5.28;4.78;;;;;;;10.45;100.00;93517.09;2097653;28;20044;-83
2022/05/19 01:39:20;;;;;;;7.68;4.50;;;;;;;10.31;100.00;93502.00;2098408;28;20340;-80
2022/05/19 01:40:34;;;;;;;5.80;4.20;;;;;;;10.38;100.00;93505.72;2098519;28;20036;-80
2022/05/19 01:42:02;;;;;;;7.53;4.25;;;;;;;10.37;100.00;93501.56;2099135;28;20024;-79
2022/05/19 01:43:31;;;;;;;6.82;4.40;;;;;;;10.40;100.00;93492.72;2101441;28;20498;-81
2022/05/19 01:44:54;;;;;;;7.90;4.70;;;;;;;10.47;100.00;93504.06;2093027;28;20509;-82
2022/05/19 01:46:21;;;;;;;5.15;4.53;;;;;;;10.30;100.00;93505.81;2087004;28;20028;-81
2022/05/19 01:47:34;;;;;;;4.85;4.35;;;;;;;10.67;100.00;93500.69;2088625;28;20041;-81
2022/05/19 01:48:47;;;;;;;7.93;4.55;;;;;;;10.45;100.00;93500.28;2082670;28;20024;-81
2022/05/19 01:49:56;;;;;;;5.30;4.80;;;;;;;10.38;100.00;93503.81;2092454;28;20029;-80
2022/05/19 01:51:02;;;;;;;5.65;4.30;;;;;;;10.35;100.00;93496.59;2089188;28;20102;-81
2022/05/19 01:52:19;;;;;;;6.25;4.43;;;;;;;10.37;100.00;93499.63;2089080;28;20060;-79
2022/05/19 01:53:41;;;;;;;12.70;4.75;;;;;;;10.54;100.00;93505.88;2085910;28;20032;-81
2022/05/19 01:54:57;;;;;;;6.38;4.00;;;;;;;10.51;100.00;93498.66;2095158;28;20032;-81
2022/05/19 01:56:18;;;;;;;5.13;4.63;;;;;;;10.37;100.00;93493.53;2097134;28;20027;-79
2022/05/19 01:57:28;;;;;;;4.85;4.35;;;;;;;10.40;100.00;93498.81;2083637;28;20025;-80
2022/05/19 01:58:37;;;;;;;5.85;4.40;;;;;;;10.34;100.00;93503.84;2083687;28;20036;-84
2022/05/19 02:00:10;;;;;;;7.95;4.28;;;;;;;10.23;100.00;93499.81;2090459;28;20401;-85
2022/05/19 02:01:14;;;;;;;7.20;4.68;;;;;;;10.13;100.00;93498.78;2085290;28;20064;-85
2022/05/19 02:02:53;;;;;;;6.55;4.47;;;;;;;10.21;100.00;93500.22;2081317;28;20559;-83
2022/05/19 02:04:09;;;;;;;5.75;4.60;;;;;;;10.14;100.00;93502.22;2053362;28;20062;-84
2022/05/19 02:05:51;;;;;;;5.95;4.63;;;;;;;10.16;100.00;93499.91;2060306;28;20039;-84
2022/05/19 02:07:04;;;;;;;7.78;4.78;;;;;;;10.27;100.00;93501.31;2088742;28;20374;-83
2022/05/19 02:08:11;;;;;;;6.65;4.85;;;;;;;10.18;100.00;93506.34;2093011;28;20036;-84
2022/05/19 02:09:19;;;;;;;8.75;4.78;;;;;;;10.24;100.00;93504.00;2089459;28;20070;-84
2022/05/19 02:10:27;;;;;;;5.72;4.43;;;;;;;10.23;100.00;93503.25;2090987;28;20029;-83
2022/05/19 02:11:38;;;;;;;7.72;4.88;;;;;;;10.24;100.00;93499.44;2081964;28;20052;-84
2022/05/19 02:12:40;;;;;;;6.85;4.20;;;;;;;10.27;100.00;93495.19;2085009;28;20022;-83
2022/05/19 02:13:42;;;;;;;6.05;4.95;;;;;;;10.43;100.00;93503.34;2097470;28;20048;-84
2022/05/19 02:14:48;;;;;;;6.40;4.80;;;;;;;10.42;100.00;93507.19;2097324;28;20385;-83
2022/05/19 02:15:51;;;;;;;6.38;4.90;;;;;;;10.20;100.00;93504.03;2089822;28;20025;-82
2022/05/19 02:16:55;;;;;;;7.53;4.72;;;;;;;10.15;100.00;93496.47;2089561;28;20021;-84
2022/05/19 02:17:57;;;;;;;7.35;4.90;;;;;;;10.16;100.00;93503.34;2089944;28;20021;-85
2022/05/19 02:18:58;;;;;;;7.68;4.80;;;;;;;10.06;100.00;93502.31;2088997;28;20037;-85
2022/05/19 02:20:08;;;;;;;5.43;4.30;;;;;;;9.97;100.00;93502.06;2072889;28;20030;-83
2022/05/19 02:21:09;;;;;;;6.82;4.65;;;;;;;9.98;100.00;93498.22;2091519;28;20025;-83
2022/05/19 02:22:15;;;;;;;5.90;4.07;;;;;;;9.97;100.00;93494.06;2097440;28;20079;-82
2022/05/19 02:23:17;;;;;;;6.53;4.85;;;;;;;9.99;100.00;93501.66;2086227;28;20032;-83
2022/05/19 02:24:22;;;;;;;7.97;4.93;;;;;;;10.05;100.00;93503.50;2072873;28;20087;-83
2022/05/19 02:25:27;;;;;;;9.90;4.40;;;;;;;10.05;100.00;93500.81;2081840;28;20457;-84
2022/05/19 02:26:33;;;;;;;7.13;4.65;;;;;;;9.94;100.00;93497.53;2089441;28;20036;-82
2022/05/19 02:27:41;;;;;;;7.00;4.82;;;;;;;9.86;100.00;93488.09;2090567;28;20032;-83
2022/05/19 02:28:51;;;;;;;8.05;5.07;;;;;;;9.85;100.00;93494.59;2089901;28;20155;-82
2022/05/19 02:29:53;;;;;;;6.63;4.70;;;;;;;9.76;100.00;93497.00;2081952;28;20028;-86
2022/05/19 02:30:55;;;;;;;9.23;4.85;;;;;;;9.71;100.00;93490.19;2073136;28;20030;-84
2022/05/19 02:31:56;;;;;;;8.02;4.80;;;;;;;9.84;100.00;93493.84;2072906;28;20033;-84
2022/05/19 02:32:57;;;;;;;6.30;4.68;;;;;;;9.82;100.00;93484.72;2080904;28;20029;-84
2022/05/19 02:33:58;;;;;;;8.65;5.05;;;;;;;9.76;100.00;93486.31;2072677;28;20030;-85
2022/05/19 02:34:59;;;;;;;8.00;5.30;;;;;;;9.87;100.00;93494.94;2072747;28;20030;-82
2022/05/19 02:36:01;;;;;;;8.35;5.00;;;;;;;9.80;100.00;93495.03;2080764;28;20041;-83
2022/05/19 02:37:02;;;;;;;6.05;4.93;;;;;;;9.82;100.00;93496.13;2097256;28;20062;-85
2022/05/19 02:38:04;;;;;;;9.40;4.85;;;;;;;9.65;100.00;93494.44;2088847;28;20028;-85
2022/05/19 02:39:05;;;;;;;6.55;4.82;;;;;;;9.63;100.00;93491.44;2085110;28;20056;-82
2022/05/19 02:40:07;;;;;;;7.05;5.07;;;;;;;9.56;100.00;93489.59;2080806;28;20841;-82
2022/05/19 02:41:09;;;;;;;6.10;5.22;;;;;;;9.59;100.00;93494.13;2081092;28;20470;-84
2022/05/19 02:42:10;;;;;;;6.75;5.13;;;;;;;9.64;100.00;93497.53;2089066;28;20017;-83
2022/05/19 02:43:12;;;;;;;6.93;4.90;;;;;;;9.68;100.00;93495.56;2080943;28;20032;-84
2022/05/19 02:44:13;;;;;;;6.65;4.80;;;;;;;9.70;100.00;93490.56;2080774;28;20032;-85
2022/05/19 02:45:16;;;;;;;5.30;4.63;;;;;;;9.72;100.00;93499.72;2072652;28;20029;-84
2022/05/19 02:46:17;;;;;;;6.53;4.90;;;;;;;9.74;100.00;93493.97;2073226;28;20038;-83
2022/05/19 02:47:18;;;;;;;8.05;5.53;;;;;;;9.69;100.00;93497.06;2080730;28;20741;-84
2022/05/19 02:48:19;;;;;;;8.10;4.93;;;;;;;9.71;100.00;93500.13;2080756;28;20084;-84
2022/05/19 02:49:22;;;;;;;7.20;4.97;;;;;;;9.71;100.00;93492.09;2080553;28;20037;-83
2022/05/19 02:50:24;;;;;;;5.70;4.80;;;;;;;9.66;100.00;93487.19;2081138;28;20021;-84
2022/05/19 02:51:25;;;;;;;9.77;5.35;;;;;;;9.65;100.00;93499.03;2089159;28;20806;-84
2022/05/19 02:52:26;;;;;;;8.93;5.63;;;;;;;9.66;100.00;93495.97;2089037;28;20025;-84
2022/05/19 02:53:27;;;;;;;8.40;4.93;;;;;;;9.63;100.00;93498.69;2080842;28;20056;-84
2022/05/19 02:54:28;;;;;;;8.60;5.45;;;;;;;9.68;100.00;93499.00;2088792;28;20052;-83
2022/05/19 02:55:29;;;;;;;9.23;5.40;;;;;;;9.77;100.00;93503.84;2088932;28;20024;-83
2022/05/19 02:56:30;;;;;;;9.13;5.32;;;;;;;9.81;100.00;93499.97;2088844;28;20021;-84
2022/05/19 02:57:31;;;;;;;6.78;4.85;;;;;;;9.78;100.00;93500.00;2088951;28;20366;-85
2022/05/19 02:58:41;;;;;;;11.75;5.45;;;;;;;9.78;100.00;93503.44;2097188;28;20394;-82
2022/05/19 02:59:43;;;;;;;12.48;5.60;;;;;;;9.67;100.00;93502.06;2091642;28;20021;-83
2022/05/19 03:00:46;;;;;;;9.48;4.93;;;;;;;9.61;100.00;93498.31;2097192;28;20029;-83
2022/05/19 03:01:47;;;;;;;7.47;5.25;;;;;;;9.58;100.00;93500.63;2088815;28;20033;-85
2022/05/19 03:02:48;;;;;;;6.15;5.13;;;;;;;9.64;100.00;93500.94;2072573;28;20153;-83
2022/05/19 03:03:49;;;;;;;6.05;5.43;;;;;;;9.57;100.00;93496.47;2080912;28;20025;-84
2022/05/19 03:04:50;;;;;;;6.00;4.80;;;;;;;9.68;100.00;93503.56;2092795;28;20032;-84
2022/05/19 03:05:51;;;;;;;6.38;5.30;;;;;;;9.65;100.00;93502.44;2080748;28;20078;-83
2022/05/19 03:06:52;;;;;;;6.13;4.88;;;;;;;9.68;100.00;93498.25;2089009;28;20060;-84
2022/05/19 03:07:53;;;;;;;5.18;4.78;;;;;;;9.75;100.00;93495.50;2090024;28;20052;-85
2022/05/19 03:08:54;;;;;;;6.05;4.75;;;;;;;9.77;100.00;93490.50;2082345;28;20068;-84
2022/05/19 03:09:58;;;;;;;5.63;5.00;;;;;;;9.78;100.00;93502.69;2090369;28;20040;-83
2022/05/19 03:10:59;;;;;;;6.55;4.63;;;;;;;9.89;100.00;93497.22;2082537;28;20025;-84
2022/05/19 03:12:00;;;;;;;5.18;4.68;;;;;;;9.98;100.00;93495.56;2082237;28;20022;-84
2022/05/19 03:13:02;;;;;;;5.97;4.88;;;;;;;9.92;100.00;93491.06;2073890;28;20046;-83
2022/05/19 03:14:04;;;;;;;6.05;4.97;;;;;;;9.86;100.00;93490.75;2082619;28;20021;-83
2022/05/19 03:15:05;;;;;;;5.47;4.75;;;;;;;9.85;100.00;93494.59;2082322;28;20508;-82
2022/05/19 03:16:43;;;;;;;8.27;5.32;;;;;;;9.70;100.00;93496.69;2074140;28;20053;-83
2022/05/19 03:17:48;;;;;;;9.18;4.78;;;;;;;9.65;100.00;93499.78;2083906;28;20024;-83
2022/05/19 03:18:57;;;;;;;5.50;5.00;;;;;;;9.55;100.00;93501.44;2083471;28;20532;-83
2022/05/19 03:20:06;;;;;;;4.50;4.10;;;;;;;9.59;100.00;93496.81;2083241;28;20040;-84
2022/05/19 03:21:07;;;;;;;5.55;4.40;;;;;;;9.56;100.00;93494.19;2087097;28;20021;-83
2022/05/19 03:22:08;;;;;;;6.68;5.05;;;;;;;9.57;100.00;93501.06;2082478;28;20029;-84
2022/05/19 03:23:09;;;;;;;5.70;5.00;;;;;;;9.54;100.00;93494.59;2098906;28;20424;-84
2022/05/19 03:24:10;;;;;;;5.22;4.65;;;;;;;9.53;100.00;93498.41;2098688;28;20508;-83
2022/05/19 03:25:11;;;;;;;5.75;4.85;;;;;;;9.59;100.00;93493.38;2090405;28;20032;-83
2022/05/19 03:26:12;;;;;;;6.07;4.97;;;;;;;9.58;100.00;93494.56;2082207;28;20028;-84
2022/05/19 03:27:13;;;;;;;6.10;4.75;;;;;;;9.54;100.00;93496.50;2082232;28;20493;-83
2022/05/19 03:28:15;;;;;;;5.75;4.60;;;;;;;9.48;100.00;93493.53;2082192;28;20078;-82
2022/05/19 03:29:16;;;;;;;5.60;4.80;;;;;;;9.44;100.00;93495.47;2082346;28;20032;-84
2022/05/19 03:30:17;;;;;;;5.35;4.35;;;;;;;9.49;100.00;93496.94;2090514;28;20020;-82
2022/05/19 03:31:18;;;;;;;5.60;4.60;;;;;;;9.64;100.00;93497.53;2082214;28;20383;-84
2022/05/19 03:32:19;;;;;;;4.80;4.40;;;;;;;9.54;100.00;93496.50;2082100;28;20033;-84
2022/05/19 03:33:21;;;;;;;8.73;5.45;;;;;;;9.58;100.00;93495.31;2090454;28;20026;-84
2022/05/19 03:34:22;;;;;;;6.10;4.53;;;;;;;9.57;100.00;93496.47;2104822;28;20020;-84
2022/05/19 03:35:23;;;;;;;8.98;5.43;;;;;;;9.47;100.00;93492.00;2098593;28;20082;-83
2022/05/19 03:36:24;;;;;;;6.47;4.70;;;;;;;9.42;100.00;93492.44;2082011;28;20080;-84
2022/05/19 03:37:25;;;;;;;6.82;4.72;;;;;;;9.44;100.00;93494.69;2077251;28;20018;-85
2022/05/19 03:38:27;;;;;;;6.00;4.88;;;;;;;9.49;100.00;93496.94;2082041;28;20026;-85
2022/05/19 03:39:29;;;;;;;5.78;5.10;;;;;;;9.64;100.00;93497.53;2086884;28;20044;-83
2022/05/19 03:40:30;;;;;;;6.80;4.63;;;;;;;9.64;100.00;93487.59;2098565;28;20539;-84
2022/05/19 03:41:31;;;;;;;9.07;5.60;;;;;;;9.56;100.00;93491.50;2090424;28;20024;-85
2022/05/19 03:42:32;;;;;;;6.22;4.75;;;;;;;9.62;100.00;93495.25;2073989;28;20079;-83
2022/05/19 03:43:33;;;;;;;5.03;4.57;;;;;;;9.64;100.00;93492.94;2073966;28;20430;-84
2022/05/19 03:44:35;;;;;;;7.00;4.55;;;;;;;9.56;100.00;93489.59;2082099;28;20056;-83
2022/05/19 03:45:36;;;;;;;6.45;5.10;;;;;;;9.52;100.00;93494.22;2090361;28;20492;-85
2022/05/19 03:46:37;;;;;;;5.32;4.82;;;;;;;9.51;100.00;93494.63;2090104;28;20021;-83
2022/05/19 03:47:38;;;;;;;7.70;4.88;;;;;;;9.53;100.00;93493.06;2081790;28;20106;-83
2022/05/19 03:48:40;;;;;;;9.02;4.75;;;;;;;9.61;100.00;93492.97;2082087;28;20103;-83
2022/05/19 03:49:40;;;;;;;10.05;5.60;;;;;;;9.47;100.00;93491.22;2081898;28;20101;-83
2022/05/19 03:50:48;;;;;;;8.07;5.72;;;;;;;9.47;100.00;93492.00;2101650;28;20035;-84
2022/05/19 03:51:50;;;;;;;5.38;4.85;;;;;;;9.49;100.00;93491.59;2090036;28;20103;-82
2022/05/19 03:52:51;;;;;;;5.28;4.78;;;;;;;9.55;100.00;93484.66;2074018;28;20068;-83
2022/05/19 03:53:53;;;;;;;6.32;5.20;;;;;;;9.55;100.00;93487.34;2081461;28;20509;-84
2022/05/19 03:54:54;;;;;;;5.55;4.90;;;;;;;9.61;100.00;93491.06;2089084;28;20032;-84
2022/05/19 03:55:55;;;;;;;8.50;4.97;;;;;;;9.65;100.00;93499.03;2089621;28;20555;-85
2022/05/19 03:56:56;;;;;;;7.20;5.13;;;;;;;9.62;100.00;93492.59;2089153;28;20037;-84
2022/05/19 03:57:57;;;;;;;6.38;4.72;;;;;;;9.63;100.00;93496.78;2088934;28;20122;-85
2022/05/19 03:58:58;;;;;;;8.73;4.72;;;;;;;9.59;100.00;93494.13;2081444;28;20041;-85
2022/05/19 04:00:07;;;;;;;5.30;4.60;;;;;;;9.61;100.00;93495.66;2081935;28;20049;-83
2022/05/19 04:01:08;;;;;;;7.82;4.85;;;;;;;9.65;100.00;93493.69;2075956;28;20033;-84
2022/05/19 04:02:09;;;;;;;7.22;5.05;;;;;;;9.76;100.00;93489.75;2073773;28;20025;-86
2022/05/19 04:03:10;;;;;;;5.07;4.55;;;;;;;9.84;100.00;93493.84;2089223;28;20017;-82
2022/05/19 04:04:11;;;;;;;13.60;4.70;;;;;;;9.77;100.00;93493.91;2091556;28;20021;-83
2022/05/19 04:05:13;;;;;;;5.45;4.60;;;;;;;9.82;100.00;93498.06;2090098;28;20025;-85
2022/05/19 04:06:14;;;;;;;4.68;4.28;;;;;;;9.72;100.00;93490.94;2082135;28;20021;-84
2022/05/19 04:07:16;;;;;;;5.78;4.72;;;;;;;9.74;100.00;93493.97;2090523;28;20033;-84
2022/05/19 04:08:16;;;;;;;6.82;4.80;;;;;;;9.80;100.00;93495.81;2098247;28;20377;-83
2022/05/19 04:09:17;;;;;;;4.82;4.35;;;;;;;9.77;100.00;93496.59;2089401;28;20025;-84
2022/05/19 04:10:18;;;;;;;5.57;4.88;;;;;;;9.76;100.00;93503.09;2090004;28;20559;-82
2022/05/19 04:11:19;;;;;;;5.35;4.72;;;;;;;9.88;100.00;93501.03;2098265;28;20025;-82
2022/05/19 04:12:20;;;;;;;4.93;4.43;;;;;;;9.92;100.00;93502.53;2098320;28;20050;-85
2022/05/19 04:13:21;;;;;;;6.47;4.78;;;;;;;9.90;100.00;93499.47;2096027;28;20808;-83
2022/05/19 04:14:22;;;;;;;5.45;4.72;;;;;;;9.87;100.00;93502.94;2081746;28;20029;-83
2022/05/19 04:15:24;;;;;;;5.10;4.60;;;;;;;9.89;100.00;93503.31;2080198;28;20049;-82
2022/05/19 04:16:25;;;;;;;5.95;4.68;;;;;;;10.00;100.00;93506.59;2081811;28;20018;-86
2022/05/19 04:17:26;;;;;;;8.27;4.68;;;;;;;10.09;100.00;93506.09;2081919;28;20406;-84
2022/05/19 04:18:27;;;;;;;6.22;4.85;;;;;;;10.11;100.00;93503.78;2081825;28;20493;-84
2022/05/19 04:19:28;;;;;;;5.70;4.90;;;;;;;10.08;100.00;93505.34;2081181;28;20137;-83
2022/05/19 04:20:30;;;;;;;5.88;5.18;;;;;;;10.12;100.00;93504.53;2073737;28;20026;-84
2022/05/19 04:21:32;;;;;;;5.40;4.90;;;;;;;10.12;100.00;93510.63;2082124;28;20021;-83
2022/05/19 04:22:33;;;;;;;7.95;4.93;;;;;;;10.25;100.00;93508.19;2090106;28;20032;-84
2022/05/19 04:23:34;;;;;;;5.03;4.63;;;;;;;10.13;100.00;93508.72;2081665;28;20025;-84
2022/05/19 04:24:35;;;;;;;5.18;4.55;;;;;;;10.17;100.00;93510.19;2073569;28;20028;-85
2022/05/19 04:25:37;;;;;;;8.00;5.00;;;;;;;10.17;100.00;93499.50;2081791;28;20045;-84
2022/05/19 04:26:40;;;;;;;6.50;4.88;;;;;;;10.32;100.00;93505.44;2081925;28;20447;-84
2022/05/19 04:27:40;;;;;;;7.88;4.93;;;;;;;10.21;100.00;93507.47;2081967;28;20029;-85
2022/05/19 04:28:44;;;;;;;5.10;4.35;;;;;;;10.26;100.00;93509.72;2081680;28;20087;-85
2022/05/19 04:29:48;;;;;;;5.30;4.80;;;;;;;10.31;100.00;93510.00;2074282;28;20030;-84
2022/05/19 04:30:49;;;;;;;5.75;4.75;;;;;;;10.24;100.00;93512.00;2082317;28;20075;-83
2022/05/19 04:31:50;;;;;;;5.90;5.30;;;;;;;10.30;100.00;93510.41;2090039;28;20068;-83
2022/05/19 04:32:51;;;;;;;4.90;4.45;;;;;;;10.42;100.00;93509.13;2082835;28;20041;-84
2022/05/19 04:33:54;;;;;;;5.57;5.07;;;;;;;10.36;100.00;93508.81;2076673;28;20981;-82
2022/05/19 04:34:55;;;;;;;7.22;5.07;;;;;;;10.36;100.00;93514.16;2081868;28;20115;-83
2022/05/19 04:35:56;;;;;;;7.75;5.18;;;;;;;10.38;100.00;93513.75;2089618;28;20023;-84
2022/05/19 04:37:05;;;;;;;5.18;4.68;;;;;;;10.37;100.00;93510.31;2075874;28;20021;-85
2022/05/19 04:38:09;;;;;;;5.43;4.90;;;;;;;10.44;100.00;93507.53;2086437;28;20116;-83
2022/05/19 04:39:10;;;;;;;5.50;4.75;;;;;;;10.43;100.00;93510.63;2091453;28;20906;-85
2022/05/19 04:40:12;;;;;;;5.70;5.13;;;;;;;10.46;100.00;93507.16;2089870;28;20033;-82
2022/05/19 04:41:14;;;;;;;7.03;4.88;;;;;;;10.58;100.00;93509.25;2089921;28;20029;-85
2022/05/19 04:42:15;;;;;;;5.88;5.28;;;;;;;10.56;100.00;93506.97;2098306;28;20054;-85
2022/05/19 04:43:23;;;;;;;6.70;5.63;;;;;;;10.62;100.00;93509.19;2098707;28;20032;-84
2022/05/19 04:44:24;;;;;;;7.85;5.50;;;;;;;10.67;100.00;93511.38;2097647;28;20032;-85
2022/05/19 04:47:22;;;;;;;6.22;5.38;;;;;;;10.71;100.00;93512.88;2089009;28;20039;-86
2022/05/19 04:48:24;;;;;;;6.05;5.38;;;;;;;10.80;100.00;93515.78;2081464;28;20022;-84
2022/05/19 04:49:25;;;;;;;5.97;5.47;;;;;;;10.68;100.00;93515.59;2083741;28;20033;-83
2022/05/19 04:50:27;;;;;;;5.93;5.07;;;;;;;10.73;100.00;93523.16;2065548;28;20022;-85
2022/05/19 04:51:28;;;;;;;7.03;5.15;;;;;;;10.63;100.00;93518.72;2073543;28;20029;-83
2022/05/19 04:52:29;;;;;;;7.22;5.47;;;;;;;10.58;100.00;93519.94;2081501;28;20022;-86
2022/05/19 04:53:30;;;;;;;5.45;5.05;;;;;;;10.59;100.00;93522.22;2073290;28;20022;-83
2022/05/19 04:54:31;;;;;;;5.55;5.05;;;;;;;10.65;100.00;93527.09;2074860;28;20028;-82
2022/05/19 04:55:35;;;;;;;7.15;5.25;;;;;;;10.56;100.00;93520.34;2089772;28;20028;-85
2022/05/19 04:56:36;;;;;;;8.13;5.47;;;;;;;10.71;100.00;93522.78;2081950;28;20025;-83
2022/05/19 04:57:38;;;;;;;5.80;5.30;;;;;;;10.65;100.00;93521.75;2081558;28;20695;-82
2022/05/19 04:58:39;;;;;;;5.65;5.10;;;;;;;10.65;100.00;93519.06;2089920;28;20104;-85
2022/05/19 04:59:41;;;;;;;10.32;5.65;;;;;;;10.75;100.00;93521.56;2089361;28;20021;-85
2022/05/19 05:00:42;;;;;;;6.80;5.00;;;;;;;10.86;100.00;93515.31;2081597;28;20025;-86
2022/05/19 05:01:46;;;;;;;6.00;5.07;;;;;;;11.00;100.00;93518.50;2073157;28;20026;-84
2022/05/19 05:02:47;;;;;;;6.68;5.10;;;;;;;11.01;100.00;93525.34;2074032;28;20117;-83
2022/05/19 05:03:48;;;;;;;6.75;5.50;;;;;;;11.28;100.00;93524.50;2081608;28;20036;-83
2022/05/19 05:04:49;;;;;;;5.55;5.10;;;;;;;11.27;100.00;93525.69;2089150;28;20029;-83
2022/05/19 05:05:50;;;;;;;5.75;5.18;;;;;;;11.27;100.00;93517.66;2073691;28;20871;-83